Time;durP1;ratioP1;P1;durP2;ratioP2;P2;SDS_P1;SDS_P2;PMS_P1;PMS_P2;Temp;Humidity;BMP_temperature;BMP_pressure;BME280_temperature;BME280_humidity;BME280_pressure;Samples;Min_cycle;Max_cycle;Signal;HPM_P1;HPM_P2
2021/03/06 00:02:09;;;;;;;15.23;6.47;;;6.40;99.90;;;;;;5024771;28;20039;-67
2021/03/06 00:04:35;;;;;;;10.55;5.32;;;6.40;99.90;;;;;;5026482;28;20625;-68
2021/03/06 00:07:01;;;;;;;12.65;6.38;;;6.40;99.90;;;;;;5026314;28;20381;-68
2021/03/06 00:09:27;;;;;;;13.52;6.40;;;6.50;99.90;;;;;;5026688;28;20104;-68
2021/03/06 00:11:52;;;;;;;11.23;6.65;;;6.60;99.90;;;;;;5024673;28;20575;-68
2021/03/06 00:14:18;;;;;;;14.98;6.85;;;6.70;99.90;;;;;;5025591;28;20661;-68
2021/03/06 00:16:44;;;;;;;13.90;6.53;;;6.80;99.90;;;;;;5020583;28;20034;-68
2021/03/06 00:19:10;;;;;;;14.13;7.03;;;7.00;99.90;;;;;;5029725;28;20033;-68
2021/03/06 00:21:35;;;;;;;11.93;6.80;;;6.90;99.90;;;;;;5031855;28;20060;-68
2021/03/06 00:24:01;;;;;;;12.25;5.65;;;6.80;99.90;;;;;;5031286;28;20053;-68
2021/03/06 00:26:27;;;;;;;14.68;6.45;;;6.70;99.90;;;;;;5031127;28;20029;-68
2021/03/06 00:28:52;;;;;;;10.43;5.97;;;6.80;99.90;;;;;;5032240;28;20035;-68
2021/03/06 00:31:18;;;;;;;10.88;6.60;;;6.80;99.90;;;;;;5031273;28;20033;-68
2021/03/06 00:33:44;;;;;;;11.10;6.68;;;6.80;99.90;;;;;;5028970;28;20398;-68
2021/03/06 00:36:10;;;;;;;16.63;7.50;;;6.70;99.90;;;;;;5030445;28;20031;-68
2021/03/06 00:38:35;;;;;;;10.63;5.88;;;6.80;99.90;;;;;;5031993;28;20036;-68
2021/03/06 00:41:01;;;;;;;9.20;5.53;;;6.70;99.90;;;;;;5031109;28;20037;-68
2021/03/06 00:43:27;;;;;;;12.18;6.22;;;6.70;99.90;;;;;;5031048;28;20033;-68
2021/03/06 00:45:53;;;;;;;10.40;4.93;;;6.80;99.90;;;;;;5031147;28;20025;-68
2021/03/06 00:48:18;;;;;;;9.23;5.57;;;6.80;99.90;;;;;;5030892;28;20851;-67
2021/03/06 00:50:44;;;;;;;11.57;5.55;;;6.80;99.90;;;;;;5029540;28;20112;-68
2021/03/06 00:53:10;;;;;;;9.57;4.82;;;6.80;99.90;;;;;;5029244;28;20400;-68
2021/03/06 00:55:35;;;;;;;10.02;6.13;;;6.80;99.90;;;;;;5030066;28;20087;-68
2021/03/06 00:58:01;;;;;;;11.23;5.38;;;6.90;99.90;;;;;;5030888;28;20038;-68
2021/03/06 01:00:27;;;;;;;12.68;5.80;;;6.80;99.90;;;;;;5024055;28;20033;-68
2021/03/06 01:02:53;;;;;;;10.02;5.18;;;6.90;99.90;;;;;;5031358;28;20419;-68
2021/03/06 01:05:19;;;;;;;12.98;5.65;;;6.90;99.90;;;;;;5029814;28;20064;-67
2021/03/06 01:07:44;;;;;;;9.55;4.72;;;7.10;99.90;;;;;;5028503;28;20055;-68
2021/03/06 01:10:14;;;;;;;12.73;5.03;;;6.90;99.90;;;;;;5028025;28;20445;-68
2021/03/06 01:12:39;;;;;;;7.43;3.90;;;6.90;99.90;;;;;;5031598;28;20029;-68
2021/03/06 01:15:07;;;;;;;10.32;5.45;;;7.00;99.90;;;;;;5029480;28;20021;-68
2021/03/06 01:17:33;;;;;;;7.57;4.30;;;7.00;99.90;;;;;;5029204;28;20029;-68
2021/03/06 01:19:58;;;;;;;10.50;5.18;;;7.20;99.90;;;;;;5029431;28;20103;-68
2021/03/06 01:22:25;;;;;;;8.80;3.72;;;7.20;99.90;;;;;;5029413;28;20025;-68
2021/03/06 01:24:50;;;;;;;8.45;3.92;;;7.10;99.90;;;;;;5027437;28;20042;-68
2021/03/06 01:27:16;;;;;;;7.78;3.88;;;7.20;99.90;;;;;;5029390;28;20096;-68
2021/03/06 01:29:42;;;;;;;9.02;4.05;;;7.20;99.90;;;;;;5031234;28;20033;-68
2021/03/06 01:32:07;;;;;;;6.43;3.33;;;6.90;99.90;;;;;;5029483;28;20072;-68
2021/03/06 01:34:33;;;;;;;7.55;2.67;;;6.80;99.90;;;;;;5030570;28;20403;-68
2021/03/06 01:36:59;;;;;;;8.07;3.83;;;7.20;99.20;;;;;;5029015;28;20053;-68
2021/03/06 01:39:25;;;;;;;7.30;3.20;;;7.20;99.70;;;;;;5030462;28;20024;-68
2021/03/06 01:41:51;;;;;;;7.53;2.95;;;7.20;98.90;;;;;;5026425;28;20025;-68
2021/03/06 01:44:17;;;;;;;6.68;3.70;;;7.20;98.50;;;;;;5028999;28;20017;-68
2021/03/06 01:46:43;;;;;;;9.55;4.32;;;7.00;99.90;;;;;;5030336;28;20040;-68
2021/03/06 01:49:09;;;;;;;8.00;3.55;;;7.00;99.90;;;;;;5030028;28;20029;-68
2021/03/06 01:51:36;;;;;;;8.32;3.60;;;6.90;99.90;;;;;;5030473;28;20021;-68
2021/03/06 01:54:03;;;;;;;8.32;3.33;;;7.10;98.00;;;;;;5029831;28;20022;-68
2021/03/06 01:56:32;;;;;;;7.97;2.53;;;7.00;99.20;;;;;;5023465;28;20183;-68
2021/03/06 01:58:58;;;;;;;4.07;1.75;;;7.40;94.10;;;;;;5026552;28;20037;-68
2021/03/06 02:01:24;;;;;;;6.53;2.10;;;7.60;91.70;;;;;;5029696;28;20679;-68
2021/03/06 02:03:50;;;;;;;5.78;2.42;;;7.50;94.70;;;;;;5029882;28;20142;-68
2021/03/06 02:06:17;;;;;;;8.48;3.10;;;7.30;96.20;;;;;;5028855;28;20033;-68
2021/03/06 02:08:43;;;;;;;5.65;2.63;;;7.20;96.20;;;;;;5030513;28;20029;-68
2021/03/06 02:11:09;;;;;;;4.72;2.25;;;7.20;96.10;;;;;;5030056;28;20028;-68
2021/03/06 02:14:13;;;;;;;5.00;2.13;;;7.20;95.90;;;;;;5030058;28;20525;-68
2021/03/06 02:16:44;;;;;;;5.47;2.58;;;7.10;94.70;;;;;;5025500;28;20037;-68
2021/03/06 02:19:38;;;;;;;3.60;1.75;;;7.10;96.70;;;;;;5029447;28;20041;-68
2021/03/06 02:22:39;;;;;;;5.43;1.70;;;7.10;95.10;;;;;;5029333;28;20045;-68
2021/03/06 02:25:04;;;;;;;2.35;0.80;;;7.30;93.90;;;;;;5027904;28;20036;-68
2021/03/06 02:27:45;;;;;;;3.83;1.50;;;7.60;90.30;;;;;;5030305;28;20022;-68
2021/03/06 02:30:12;;;;;;;4.72;1.95;;;7.50;90.00;;;;;;5031790;28;20079;-68
2021/03/06 02:32:47;;;;;;;3.53;1.50;;;7.20;94.30;;;;;;5032529;28;20022;-68
2021/03/06 02:35:21;;;;;;;3.80;1.50;;;7.20;92.80;;;;;;5031783;28;20080;-68
2021/03/06 02:37:55;;;;;;;2.90;1.00;;;7.30;93.80;;;;;;5034045;28;20032;-68
2021/03/06 02:40:23;;;;;;;4.18;1.50;;;7.40;88.80;;;;;;5034165;28;20029;-68
2021/03/06 02:42:50;;;;;;;3.67;1.63;;;7.10;94.80;;;;;;5033305;28;20021;-68
2021/03/06 02:45:17;;;;;;;3.78;1.67;;;6.90;95.30;;;;;;5032726;28;20033;-68
2021/03/06 02:47:43;;;;;;;2.63;1.27;;;6.80;95.10;;;;;;5033868;28;20542;-68
2021/03/06 02:50:10;;;;;;;4.20;1.50;;;6.90;91.90;;;;;;5029022;28;20026;-68
2021/03/06 02:52:37;;;;;;;6.70;1.67;;;6.90;94.40;;;;;;5033751;28;20032;-68
2021/03/06 02:55:08;;;;;;;4.75;2.03;;;6.70;96.40;;;;;;5032658;28;20037;-68
2021/03/06 02:57:46;;;;;;;5.38;1.80;;;6.70;95.70;;;;;;5033252;28;20040;-68
2021/03/06 03:00:33;;;;;;;4.25;1.60;;;6.60;96.30;;;;;;5032926;28;20105;-68
2021/03/06 03:03:11;;;;;;;2.45;1.10;;;6.70;94.60;;;;;;5033692;28;20056;-68
2021/03/06 03:06:02;;;;;;;3.17;1.20;;;7.00;90.90;;;;;;5027634;28;20052;-68
2021/03/06 03:08:38;;;;;;;2.83;1.10;;;7.10;91.50;;;;;;5029759;28;20029;-68
2021/03/06 03:11:09;;;;;;;3.60;1.35;;;6.90;94.10;;;;;;5033426;28;20500;-68
2021/03/06 03:13:48;;;;;;;3.00;1.42;;;6.80;94.50;;;;;;5033308;28;20033;-68
2021/03/06 03:16:53;;;;;;;3.47;1.50;;;6.60;96.50;;;;;;5033222;28;20057;-68
2021/03/06 03:19:34;;;;;;;4.45;1.77;;;6.80;93.00;;;;;;5014197;28;20053;-68
2021/03/06 03:22:04;;;;;;;3.13;1.35;;;6.80;94.60;;;;;;5032106;28;20084;-68
2021/03/06 03:24:35;;;;;;;2.70;0.88;;;6.60;95.60;;;;;;5023082;28;20084;-68
2021/03/06 03:27:06;;;;;;;2.47;1.25;;;6.90;90.80;;;;;;5031415;28;20034;-68
2021/03/06 03:29:32;;;;;;;1.27;0.60;;;6.90;94.10;;;;;;5026089;28;20060;-68
2021/03/06 03:31:59;;;;;;;2.97;0.98;;;7.00;89.90;;;;;;5032876;28;20025;-68
2021/03/06 03:34:25;;;;;;;4.18;1.30;;;7.10;90.40;;;;;;5031387;28;20462;-68
2021/03/06 03:36:53;;;;;;;5.88;1.27;;;6.90;93.60;;;;;;5033181;28;20116;-68
2021/03/06 03:39:20;;;;;;;2.72;0.82;;;6.80;92.10;;;;;;5032556;28;20095;-68
2021/03/06 03:41:46;;;;;;;3.00;1.02;;;7.00;91.20;;;;;;5027420;28;20030;-68
2021/03/06 03:44:15;;;;;;;2.67;1.10;;;7.00;91.40;;;;;;5032435;28;20032;-68
2021/03/06 03:46:41;;;;;;;3.35;1.17;;;6.80;92.90;;;;;;5032808;28;20454;-68
2021/03/06 03:49:14;;;;;;;2.45;1.25;;;6.80;90.80;;;;;;5032298;28;20084;-68
2021/03/06 03:51:41;;;;;;;1.73;0.70;;;6.60;93.90;;;;;;5033239;28;20034;-68
2021/03/06 03:54:07;;;;;;;4.78;1.20;;;6.80;90.70;;;;;;5031960;28;20067;-68
2021/03/06 03:56:33;;;;;;;4.78;1.23;;;6.80;93.00;;;;;;5031803;28;20034;-68
2021/03/06 03:59:00;;;;;;;2.53;1.40;;;6.60;94.50;;;;;;5027545;28;20112;-69
2021/03/06 04:01:26;;;;;;;3.30;1.25;;;6.60;92.90;;;;;;5031734;28;20107;-68
2021/03/06 04:03:52;;;;;;;6.00;1.83;;;6.80;91.20;;;;;;5025060;28;20626;-67
2021/03/06 04:06:17;;;;;;;2.40;0.88;;;6.70;93.30;;;;;;5025151;28;20033;-68
2021/03/06 04:08:43;;;;;;;2.47;1.05;;;6.70;92.00;;;;;;5025504;28;20078;-68
2021/03/06 04:11:09;;;;;;;1.88;0.80;;;6.30;94.50;;;;;;5023921;28;20026;-68
2021/03/06 04:13:35;;;;;;;2.03;1.08;;;6.20;95.40;;;;;;5024780;28;20029;-68
2021/03/06 04:16:00;;;;;;;1.65;0.73;;;6.40;92.50;;;;;;5019329;28;20033;-68
2021/03/06 04:18:26;;;;;;;2.08;1.10;;;6.60;91.00;;;;;;5024762;28;20581;-68
2021/03/06 04:20:52;;;;;;;2.03;1.13;;;6.60;91.60;;;;;;5025127;28;20025;-68
2021/03/06 04:23:18;;;;;;;2.55;0.82;;;6.50;91.50;;;;;;5023568;28;20029;-68
2021/03/06 04:25:43;;;;;;;1.13;0.45;;;6.50;91.40;;;;;;5024989;28;20025;-68
2021/03/06 04:28:10;;;;;;;2.75;1.00;;;6.50;90.20;;;;;;5021856;28;20022;-68
2021/03/06 04:30:35;;;;;;;2.33;0.85;;;6.50;91.10;;;;;;5023739;28;20593;-68
2021/03/06 04:33:01;;;;;;;1.98;0.60;;;6.30;92.10;;;;;;5020323;28;20112;-68
2021/03/06 04:35:27;;;;;;;1.88;0.80;;;6.20;91.10;;;;;;5023516;28;20408;-68
2021/03/06 04:37:53;;;;;;;2.03;0.90;;;6.30;90.80;;;;;;5024633;28;20483;-67
2021/03/06 04:40:19;;;;;;;2.90;1.20;;;5.80;93.40;;;;;;5023821;28;20110;-67
2021/03/06 04:42:44;;;;;;;2.35;1.10;;;5.90;93.60;;;;;;5024652;28;20021;-67
2021/03/06 04:45:11;;;;;;;3.10;1.30;;;5.60;95.20;;;;;;5023628;28;20036;-68
2021/03/06 04:47:44;;;;;;;2.60;1.33;;;5.70;95.50;;;;;;5023931;28;20028;-68
2021/03/06 04:50:10;;;;;;;3.08;1.23;;;5.60;95.40;;;;;;5020502;28;20021;-68
2021/03/06 04:52:36;;;;;;;2.97;0.95;;;5.60;95.90;;;;;;5017657;28;20380;-68
2021/03/06 04:55:02;;;;;;;4.60;1.42;;;5.50;96.20;;;;;;5023984;28;20062;-68
2021/03/06 04:57:28;;;;;;;2.58;1.30;;;5.40;95.70;;;;;;5016306;28;20499;-68
2021/03/06 04:59:53;;;;;;;2.63;1.00;;;5.60;94.90;;;;;;5017898;28;20137;-67
2021/03/06 05:02:19;;;;;;;2.88;1.42;;;5.60;94.80;;;;;;5023505;28;20040;-68
2021/03/06 05:04:45;;;;;;;3.22;1.40;;;5.60;94.90;;;;;;5024112;28;20032;-67
2021/03/06 05:07:10;;;;;;;2.42;1.10;;;5.50;94.90;;;;;;5019341;28;20060;-67
2021/03/06 05:09:36;;;;;;;4.35;1.38;;;5.40;95.00;;;;;;5023301;28;20029;-68
2021/03/06 05:12:02;;;;;;;4.43;1.27;;;5.30;95.80;;;;;;5023909;28;20026;-68
2021/03/06 05:14:28;;;;;;;3.63;1.27;;;5.00;96.80;;;;;;5023174;28;20531;-68
2021/03/06 05:16:53;;;;;;;2.65;1.00;;;4.90;97.10;;;;;;5023768;28;20030;-68
2021/03/06 05:19:19;;;;;;;1.88;0.90;;;5.00;96.00;;;;;;5023735;28;20065;-68
2021/03/06 05:21:45;;;;;;;1.80;0.88;;;5.10;95.40;;;;;;5022707;28;20029;-67
2021/03/06 05:24:10;;;;;;;1.83;1.15;;;5.00;96.10;;;;;;5018061;28;20033;-68
2021/03/06 05:26:36;;;;;;;4.63;0.90;;;5.10;95.70;;;;;;5023759;28;20369;-68
2021/03/06 05:29:02;;;;;;;2.20;0.85;;;4.90;96.50;;;;;;5023112;28;20033;-68
2021/03/06 05:31:28;;;;;;;2.83;1.15;;;4.70;97.50;;;;;;5023262;28;20033;-67
2021/03/06 05:33:54;;;;;;;3.22;1.17;;;4.60;97.90;;;;;;5020961;28;20096;-68
2021/03/06 05:36:20;;;;;;;2.50;1.00;;;4.70;98.10;;;;;;5023218;28;20021;-68
2021/03/06 05:38:45;;;;;;;2.38;1.00;;;4.90;97.80;;;;;;5023659;28;20076;-68
2021/03/06 05:41:11;;;;;;;2.78;1.30;;;4.80;97.70;;;;;;5017361;28;20048;-67
2021/03/06 05:43:38;;;;;;;1.38;0.80;;;4.80;98.00;;;;;;5023432;28;20033;-68
2021/03/06 05:46:04;;;;;;;2.70;1.00;;;4.80;98.40;;;;;;5022749;28;20041;-68
2021/03/06 05:48:30;;;;;;;1.63;0.70;;;4.80;98.20;;;;;;5023614;28;20048;-68
2021/03/06 05:50:56;;;;;;;3.22;1.30;;;4.80;98.50;;;;;;5023527;28;20440;-68
2021/03/06 05:53:24;;;;;;;4.28;0.90;;;4.70;98.50;;;;;;5021619;28;20480;-67
2021/03/06 05:55:56;;;;;;;2.15;1.00;;;4.60;98.60;;;;;;5023116;28;20021;-67
2021/03/06 05:58:22;;;;;;;2.15;1.23;;;4.60;98.70;;;;;;5018835;28;20084;-67
2021/03/06 06:00:49;;;;;;;3.17;1.42;;;4.60;98.70;;;;;;5023548;28;20029;-67
2021/03/06 06:03:20;;;;;;;1.58;0.70;;;4.70;98.20;;;;;;5022153;28;20135;-68
2021/03/06 06:05:47;;;;;;;1.30;0.75;;;4.90;97.80;;;;;;5029736;28;20917;-67
2021/03/06 06:08:14;;;;;;;2.95;1.20;;;4.80;97.90;;;;;;5029504;28;20163;-67
2021/03/06 06:10:40;;;;;;;1.55;0.82;;;4.70;98.10;;;;;;5029547;28;20028;-69
2021/03/06 06:13:06;;;;;;;1.85;0.82;;;4.60;98.50;;;;;;5027818;28;20463;-68
2021/03/06 06:15:32;;;;;;;2.30;0.95;;;4.50;99.20;;;;;;5025162;28;20032;-67
2021/03/06 06:17:58;;;;;;;2.05;0.90;;;4.50;99.30;;;;;;5029515;28;20502;-68
2021/03/06 06:20:24;;;;;;;2.10;0.90;;;4.40;99.10;;;;;;5029082;28;20159;-68
2021/03/06 06:23:08;;;;;;;4.18;1.25;;;4.50;99.00;;;;;;5029200;28;20455;-68
2021/03/06 06:25:34;;;;;;;2.10;0.93;;;4.60;99.00;;;;;;5023641;28;20030;-68
2021/03/06 06:28:00;;;;;;;4.03;1.50;;;4.70;98.60;;;;;;5029894;28;20326;-68
2021/03/06 06:30:26;;;;;;;1.98;0.95;;;4.90;98.40;;;;;;5029104;28;20100;-68
2021/03/06 06:32:52;;;;;;;2.85;1.20;;;4.90;98.70;;;;;;5025041;28;20135;-68
2021/03/06 06:35:18;;;;;;;5.93;1.10;;;5.10;98.40;;;;;;5026978;28;20096;-68
2021/03/06 06:37:55;;;;;;;3.20;1.27;;;5.00;98.60;;;;;;5028415;28;20091;-68
2021/03/06 06:40:23;;;;;;;2.35;1.13;;;5.10;98.90;;;;;;5027503;28;20420;-67
2021/03/06 06:42:49;;;;;;;2.42;1.10;;;5.10;98.70;;;;;;5027558;28;20369;-68
2021/03/06 06:45:16;;;;;;;3.45;1.58;;;5.30;98.80;;;;;;5028614;28;20036;-68
2021/03/06 06:47:44;;;;;;;2.22;1.23;;;5.40;98.50;;;;;;5027048;28;20116;-68
2021/03/06 06:50:12;;;;;;;2.05;0.95;;;5.50;98.50;;;;;;5026910;28;20022;-68
2021/03/06 06:52:42;;;;;;;3.83;1.40;;;5.60;98.30;;;;;;5028016;28;20026;-67
2021/03/06 06:55:11;;;;;;;4.15;1.50;;;5.80;97.00;;;;;;5026242;28;20029;-67
2021/03/06 06:57:47;;;;;;;3.88;1.40;;;5.90;95.40;;;;;;5028919;28;20033;-68
2021/03/06 07:00:13;;;;;;;3.58;1.75;;;6.10;93.90;;;;;;5028115;28;20044;-67
2021/03/06 07:03:00;;;;;;;2.28;1.00;;;6.20;92.40;;;;;;5029117;28;20091;-68
2021/03/06 07:05:32;;;;;;;3.13;1.10;;;6.30;91.70;;;;;;5024042;28;20071;-67
2021/03/06 07:08:04;;;;;;;3.20;1.00;;;6.40;91.50;;;;;;5029027;28;20026;-68
2021/03/06 07:10:37;;;;;;;3.53;1.27;;;6.30;92.80;;;;;;5026543;28;20025;-68
2021/03/06 07:13:09;;;;;;;2.50;1.13;;;6.40;94.30;;;;;;5027902;28;21161;-68
2021/03/06 07:15:36;;;;;;;3.90;1.33;;;6.20;95.40;;;;;;5022942;28;20065;-68
2021/03/06 07:18:09;;;;;;;3.05;1.33;;;6.30;95.20;;;;;;5013965;28;20041;-68
2021/03/06 07:20:40;;;;;;;3.60;1.40;;;6.30;95.10;;;;;;5013775;28;20026;-68
2021/03/06 07:23:18;;;;;;;1.92;0.93;;;6.30;94.90;;;;;;5013662;28;20085;-68
2021/03/06 07:25:45;;;;;;;3.75;1.77;;;6.40;95.10;;;;;;5014003;28;20026;-69
2021/03/06 07:28:11;;;;;;;3.45;1.35;;;6.40;95.10;;;;;;5010190;28;20062;-68
2021/03/06 07:30:37;;;;;;;4.47;1.77;;;6.40;94.90;;;;;;5025849;28;20114;-68
2021/03/06 07:33:05;;;;;;;4.90;2.53;;;6.40;94.60;;;;;;5013390;28;20026;-69
2021/03/06 07:35:37;;;;;;;262.80;103.32;;;6.50;94.10;;;;;;5013266;28;20046;-68
2021/03/06 07:38:06;;;;;;;271.13;115.50;;;6.50;94.50;;;;;;5009371;28;20562;-68
2021/03/06 07:40:38;;;;;;;27.25;12.45;;;6.60;94.40;;;;;;5010319;28;20040;-68
2021/03/06 07:43:14;;;;;;;14.02;7.15;;;6.70;93.90;;;;;;5008607;28;20033;-68
2021/03/06 07:45:45;;;;;;;9.23;4.43;;;6.80;93.70;;;;;;5006359;28;20033;-68
2021/03/06 07:48:16;;;;;;;5.57;2.90;;;6.80;93.60;;;;;;5012253;28;20116;-68
2021/03/06 07:50:53;;;;;;;5.20;2.28;;;6.80;93.50;;;;;;5013311;28;20036;-68
2021/03/06 07:53:20;;;;;;;3.08;1.60;;;6.70;94.00;;;;;;5010641;28;20097;-69
2021/03/06 07:55:47;;;;;;;3.90;1.73;;;6.60;94.40;;;;;;5014036;28;20029;-69
2021/03/06 07:58:13;;;;;;;5.07;2.20;;;6.50;94.80;;;;;;5006710;28;20042;-68
2021/03/06 08:00:43;;;;;;;5.93;2.10;;;6.50;94.90;;;;;;5006877;28;20109;-68
2021/03/06 08:03:25;;;;;;;3.85;1.92;;;6.40;93.60;;;;;;5034203;28;20032;-68
2021/03/06 08:05:53;;;;;;;4.45;1.80;;;6.40;93.60;;;;;;5010858;28;20523;-68
2021/03/06 08:08:33;;;;;;;3.85;2.17;;;6.40;93.80;;;;;;5006516;28;21869;-68
2021/03/06 08:11:09;;;;;;;5.20;1.83;;;6.50;94.40;;;;;;5017743;28;20235;-69
2021/03/06 08:13:36;;;;;;;4.47;1.60;;;6.40;95.10;;;;;;5012100;28;20037;-68
2021/03/06 08:16:23;;;;;;;5.20;2.67;;;6.50;95.30;;;;;;5005873;28;20464;-69
2021/03/06 08:19:14;;;;;;;8.07;4.03;;;6.50;95.50;;;;;;5010352;28;20116;-68
2021/03/06 08:21:41;;;;;;;14.50;6.40;;;6.40;96.00;;;;;;5005534;28;20085;-68
2021/03/06 08:26:51;;;;;;;8.38;3.58;;;6.40;95.20;;;;;;5006213;28;20100;-68
2021/03/06 08:29:23;;;;;;;8.00;2.85;;;6.50;95.00;;;;;;5006944;28;20149;-68
2021/03/06 08:32:04;;;;;;;8.93;2.80;;;6.50;95.20;;;;;;5019310;28;20033;-68
2021/03/06 08:34:47;;;;;;;7.38;2.78;;;6.50;94.60;;;;;;5022380;28;20365;-68
2021/03/06 08:39:46;;;;;;;6.05;1.98;;;6.70;94.10;;;;;;5024369;28;20029;-68
2021/03/06 08:42:17;;;;;;;5.13;2.38;;;6.70;94.40;;;;;;5021349;28;20033;-68
2021/03/06 08:44:44;;;;;;;6.78;2.75;;;6.80;94.40;;;;;;5020721;28;20036;-68
2021/03/06 08:47:10;;;;;;;4.65;2.08;;;7.00;94.30;;;;;;5018331;28;20029;-68
2021/03/06 08:49:37;;;;;;;4.55;1.77;;;7.10;94.00;;;;;;5024291;28;20014;-68
2021/03/06 08:52:04;;;;;;;3.97;1.58;;;7.20;93.40;;;;;;5024006;28;20029;-68
2021/03/06 08:54:40;;;;;;;4.15;1.92;;;7.30;93.30;;;;;;5023848;28;20683;-68
2021/03/06 08:57:33;;;;;;;6.40;2.25;;;7.50;93.20;;;;;;5023726;28;20029;-68
2021/03/06 09:00:01;;;;;;;4.82;2.38;;;7.50;92.90;;;;;;5022848;28;20874;-69
2021/03/06 09:02:31;;;;;;;6.47;2.55;;;7.60;93.10;;;;;;5023047;28;20025;-68
2021/03/06 09:05:02;;;;;;;5.78;2.58;;;7.60;93.40;;;;;;5017674;28;20525;-68
2021/03/06 09:07:33;;;;;;;4.95;2.50;;;7.70;93.60;;;;;;5018431;28;20108;-69
2021/03/06 09:10:37;;;;;;;5.40;2.67;;;7.70;93.80;;;;;;5022749;28;20032;-68
2021/03/06 09:13:15;;;;;;;5.13;2.47;;;7.60;93.00;;;;;;5008635;28;20040;-70
2021/03/06 09:16:04;;;;;;;10.13;3.13;;;7.80;94.00;;;;;;5023091;28;20527;-69
2021/03/06 09:18:35;;;;;;;5.85;2.92;;;7.90;93.80;;;;;;5017764;28;20033;-69
2021/03/06 09:21:05;;;;;;;5.10;2.53;;;8.00;94.40;;;;;;5018728;28;20034;-68
2021/03/06 09:23:42;;;;;;;4.47;2.25;;;8.10;91.90;;;;;;5019490;28;20033;-68
2021/03/06 09:26:19;;;;;;;6.55;1.75;;;8.00;91.50;;;;;;5023495;28;20029;-68
2021/03/06 09:28:46;;;;;;;3.97;2.00;;;7.90;91.80;;;;;;5024980;28;20103;-68
2021/03/06 09:31:28;;;;;;;4.00;1.92;;;7.90;91.70;;;;;;5024549;28;20636;-68
2021/03/06 09:33:55;;;;;;;5.28;1.70;;;7.90;91.20;;;;;;5024031;28;20060;-68
2021/03/06 09:36:22;;;;;;;3.80;1.38;;;7.70;91.00;;;;;;5024072;28;20380;-68
2021/03/06 09:38:55;;;;;;;4.22;1.98;;;7.70;91.40;;;;;;5011106;28;20034;-68
2021/03/06 09:41:28;;;;;;;2.50;1.40;;;7.80;91.50;;;;;;5004622;28;20645;-68
2021/03/06 09:43:56;;;;;;;3.90;1.60;;;8.00;91.50;;;;;;5004343;28;20029;-68
2021/03/06 09:46:25;;;;;;;3.50;1.77;;;8.00;91.20;;;;;;5018871;28;20083;-69
2021/03/06 09:49:00;;;;;;;3.58;1.52;;;8.10;92.00;;;;;;5024366;28;20017;-68
2021/03/06 09:51:47;;;;;;;5.90;1.65;;;8.20;91.70;;;;;;5024800;28;20033;-68
2021/03/06 09:54:15;;;;;;;3.00;1.50;;;8.20;91.20;;;;;;5024033;28;20029;-68
2021/03/06 09:57:00;;;;;;;5.07;2.22;;;8.10;91.20;;;;;;5015318;28;20033;-68
2021/03/06 09:59:28;;;;;;;2.65;1.58;;;8.20;91.80;;;;;;5023946;28;20049;-68
2021/03/06 10:01:54;;;;;;;4.97;1.60;;;8.30;91.70;;;;;;5024054;28;20036;-68
2021/03/06 10:04:22;;;;;;;3.47;1.55;;;8.50;92.00;;;;;;5024187;28;20021;-68
2021/03/06 10:06:50;;;;;;;5.75;1.70;;;8.60;91.40;;;;;;5023568;28;20026;-68
2021/03/06 10:09:18;;;;;;;4.13;2.15;;;8.60;91.50;;;;;;5024459;28;20025;-69
2021/03/06 10:11:52;;;;;;;4.13;1.70;;;8.70;91.90;;;;;;5022173;28;20033;-68
2021/03/06 10:14:21;;;;;;;3.33;1.75;;;8.70;91.40;;;;;;5023444;28;20104;-68
2021/03/06 10:17:00;;;;;;;4.22;1.70;;;8.60;91.60;;;;;;5023619;28;20024;-68
2021/03/06 10:19:31;;;;;;;4.35;1.77;;;8.70;91.40;;;;;;5023765;28;20036;-68
2021/03/06 10:22:03;;;;;;;3.72;1.92;;;8.80;91.60;;;;;;5023294;28;20025;-69
2021/03/06 10:24:50;;;;;;;5.18;2.10;;;8.90;91.80;;;;;;5023689;28;20535;-68
2021/03/06 10:27:16;;;;;;;3.10;1.60;;;9.00;91.10;;;;;;5022567;28;20029;-68
2021/03/06 10:29:42;;;;;;;3.40;1.73;;;9.10;90.80;;;;;;5013282;28;20029;-68
2021/03/06 10:32:08;;;;;;;4.18;1.77;;;9.30;90.60;;;;;;5012181;28;20029;-69
2021/03/06 10:34:35;;;;;;;4.50;1.70;;;9.50;90.60;;;;;;5023840;28;20091;-68
2021/03/06 10:37:07;;;;;;;3.28;1.58;;;9.50;90.50;;;;;;5023963;28;20606;-68
2021/03/06 10:39:34;;;;;;;3.60;1.90;;;9.40;90.60;;;;;;5022522;28;20069;-68
2021/03/06 10:42:00;;;;;;;2.80;1.48;;;9.40;90.30;;;;;;5023971;28;20509;-69
2021/03/06 10:44:39;;;;;;;4.18;1.90;;;9.40;90.60;;;;;;5023136;28;20044;-68
2021/03/06 10:47:05;;;;;;;4.15;1.92;;;9.40;86.90;;;;;;5009550;28;20121;-68
2021/03/06 10:49:39;;;;;;;4.22;1.67;;;9.70;90.40;;;;;;5016872;28;20155;-68
2021/03/06 10:52:05;;;;;;;4.82;1.67;;;9.80;86.60;;;;;;5026515;28;20167;-68
2021/03/06 10:54:52;;;;;;;2.83;1.42;;;9.60;87.80;;;;;;5026034;28;20030;-68
2021/03/06 10:57:18;;;;;;;3.70;1.83;;;10.00;90.10;;;;;;5027034;28;20127;-68
2021/03/06 10:59:44;;;;;;;3.22;1.42;;;10.20;87.80;;;;;;5027482;28;20026;-68
2021/03/06 11:02:24;;;;;;;3.95;2.03;;;10.10;86.80;;;;;;5026559;28;20039;-68
2021/03/06 11:04:50;;;;;;;2.95;1.52;;;10.10;85.90;;;;;;5022528;28;20120;-68
2021/03/06 11:07:26;;;;;;;4.15;2.00;;;10.30;88.60;;;;;;5027363;28;20136;-68
2021/03/06 11:09:57;;;;;;;5.07;1.75;;;10.40;85.60;;;;;;5027467;28;20545;-68
2021/03/06 11:12:31;;;;;;;3.15;1.55;;;10.10;85.20;;;;;;5026443;28;20460;-68
2021/03/06 11:15:09;;;;;;;4.70;2.13;;;10.60;86.30;;;;;;5019545;28;20342;-68
2021/03/06 11:17:35;;;;;;;2.70;1.60;;;11.10;87.30;;;;;;5007870;28;20084;-68
2021/03/06 11:20:01;;;;;;;4.38;2.03;;;11.10;87.00;;;;;;5011585;28;20480;-68
2021/03/06 11:22:27;;;;;;;5.03;1.60;;;10.90;86.30;;;;;;5027308;28;20035;-68
2021/03/06 11:24:53;;;;;;;2.85;1.65;;;10.50;84.20;;;;;;5026500;28;20025;-68
2021/03/06 11:27:19;;;;;;;5.20;1.67;;;10.50;85.60;;;;;;5026989;28;20026;-68
2021/03/06 11:29:45;;;;;;;6.13;2.17;;;11.00;86.60;;;;;;5026464;28;20075;-68
2021/03/06 11:32:10;;;;;;;5.38;1.55;;;11.30;85.60;;;;;;5026687;28;20087;-68
2021/03/06 11:34:36;;;;;;;3.83;1.52;;;11.50;82.30;;;;;;5026400;28;20410;-68
2021/03/06 11:37:02;;;;;;;5.28;2.28;;;11.50;82.00;;;;;;5018953;28;20033;-69
2021/03/06 11:39:28;;;;;;;2.53;1.33;;;11.30;80.80;;;;;;5025637;28;20438;-70
2021/03/06 11:41:53;;;;;;;13.25;4.47;;;11.40;80.20;;;;;;5025679;28;20487;-70
2021/03/06 11:44:19;;;;;;;4.32;2.10;;;11.70;80.80;;;;;;5024488;28;20392;-70
2021/03/06 11:46:45;;;;;;;7.60;2.80;;;11.80;80.00;;;;;;5026786;28;20064;-70
2021/03/06 11:49:10;;;;;;;3.85;1.90;;;11.80;79.60;;;;;;5026375;28;20075;-70
2021/03/06 11:51:36;;;;;;;4.13;2.13;;;11.80;80.60;;;;;;5024770;28;20626;-71
2021/03/06 11:54:03;;;;;;;4.72;2.15;;;11.80;80.60;;;;;;5020423;28;20415;-72
2021/03/06 11:56:28;;;;;;;7.03;2.67;;;11.30;82.30;;;;;;5024887;28;20029;-71
2021/03/06 11:58:54;;;;;;;5.53;2.67;;;11.60;84.60;;;;;;5029713;28;20645;-71
2021/03/06 12:01:20;;;;;;;4.10;2.10;;;11.60;83.10;;;;;;5024726;28;20044;-72
2021/03/06 12:03:45;;;;;;;4.45;2.42;;;11.60;81.10;;;;;;5023578;28;20514;-69
2021/03/06 12:06:11;;;;;;;6.10;3.13;;;11.60;82.80;;;;;;5023780;28;20099;-71
2021/03/06 12:08:37;;;;;;;3.88;1.92;;;11.50;80.80;;;;;;5024643;28;20502;-70
2021/03/06 12:11:03;;;;;;;7.72;4.10;;;11.50;82.00;;;;;;5020455;28;20104;-70
2021/03/06 12:13:31;;;;;;;172.95;89.82;;;11.50;80.00;;;;;;5024470;28;20017;-70
2021/03/06 12:15:57;;;;;;;13.40;10.00;;;11.40;81.00;;;;;;5024791;28;20601;-70
2021/03/06 12:18:22;;;;;;;33.67;20.92;;;11.40;82.30;;;;;;5023541;28;20033;-71
2021/03/06 12:20:48;;;;;;;22.23;13.60;;;11.40;82.50;;;;;;5038751;28;20124;-71
2021/03/06 12:23:14;;;;;;;28.27;13.45;;;11.60;83.50;;;;;;5016931;28;20033;-70
2021/03/06 12:25:40;;;;;;;36.50;15.18;;;11.90;82.80;;;;;;5024343;28;20033;-71
2021/03/06 12:28:05;;;;;;;37.78;14.85;;;12.00;82.30;;;;;;5018914;28;20073;-73
2021/03/06 12:30:31;;;;;;;33.97;15.35;;;11.90;82.00;;;;;;5019416;28;20503;-72
2021/03/06 12:32:57;;;;;;;62.33;25.60;;;11.50;82.00;;;;;;5023488;28;20099;-72
2021/03/06 12:35:23;;;;;;;23.23;11.57;;;11.40;81.80;;;;;;5023484;28;20050;-72
2021/03/06 12:37:48;;;;;;;19.45;10.05;;;11.60;83.20;;;;;;5023888;28;20484;-71
2021/03/06 12:40:15;;;;;;;26.27;11.20;;;11.50;81.60;;;;;;5023006;28;20021;-72
2021/03/06 12:42:41;;;;;;;17.92;8.15;;;11.50;81.60;;;;;;5023904;28;20608;-72
2021/03/06 12:45:10;;;;;;;19.05;9.48;;;11.50;80.30;;;;;;5024198;28;20505;-72
2021/03/06 12:47:36;;;;;;;18.33;6.93;;;11.50;80.00;;;;;;5023787;28;20024;-72
2021/03/06 12:50:04;;;;;;;10.70;5.95;;;11.30;80.70;;;;;;5023135;28;20025;-72
2021/03/06 12:52:29;;;;;;;21.33;10.05;;;11.50;79.90;;;;;;5016396;28;20028;-72
2021/03/06 12:54:56;;;;;;;32.08;10.82;;;11.60;80.90;;;;;;5022069;28;20411;-71
2021/03/06 12:57:21;;;;;;;59.63;25.38;;;11.90;82.00;;;;;;5022109;28;20029;-72
2021/03/06 12:59:48;;;;;;;12.60;5.80;;;11.90;79.60;;;;;;5022913;28;20049;-72
2021/03/06 13:02:14;;;;;;;14.27;5.30;;;11.60;79.50;;;;;;5017482;28;20118;-72
2021/03/06 13:04:39;;;;;;;6.80;3.53;;;11.50;79.50;;;;;;5023199;28;20119;-72
2021/03/06 13:07:05;;;;;;;9.02;3.70;;;11.70;80.70;;;;;;5025581;28;20044;-72
2021/03/06 13:09:31;;;;;;;6.00;3.45;;;11.60;80.70;;;;;;5022964;28;20564;-72